sensor_id;sensor_type;location;lat;lon;timestamp;P1;durP1;ratioP1;P2;durP2;ratioP2
79566;SDS011;69030;48.126;7.816;2023-08-01T00:01:06;5.97;;;2.83;;
79566;SDS011;69030;48.126;7.816;2023-08-01T00:03:31;4.40;;;2.28;;
79566;SDS011;69030;48.126;7.816;2023-08-01T00:05:57;5.70;;;3.55;;
79566;SDS011;69030;48.126;7.816;2023-08-01T00:08:23;4.13;;;2.25;;
79566;SDS011;69030;48.126;7.816;2023-08-01T00:10:48;6.10;;;2.90;;
79566;SDS011;69030;48.126;7.816;2023-08-01T00:13:13;4.32;;;2.67;;
79566;SDS011;69030;48.126;7.816;2023-08-01T00:15:39;4.53;;;2.30;;
79566;SDS011;69030;48.126;7.816;2023-08-01T00:18:04;5.18;;;3.25;;
79566;SDS011;69030;48.126;7.816;2023-08-01T00:20:29;3.60;;;2.40;;
79566;SDS011;69030;48.126;7.816;2023-08-01T00:22:55;5.90;;;3.13;;
79566;SDS011;69030;48.126;7.816;2023-08-01T00:25:20;4.32;;;3.25;;
79566;SDS011;69030;48.126;7.816;2023-08-01T00:27:46;4.95;;;2.10;;
79566;SDS011;69030;48.126;7.816;2023-08-01T00:30:11;3.92;;;2.40;;
79566;SDS011;69030;48.126;7.816;2023-08-01T00:32:37;2.45;;;2.05;;
79566;SDS011;69030;48.126;7.816;2023-08-01T00:35:03;4.35;;;2.45;;
79566;SDS011;69030;48.126;7.816;2023-08-01T00:37:29;3.63;;;2.42;;
79566;SDS011;69030;48.126;7.816;2023-08-01T00:39:54;4.43;;;1.88;;
79566;SDS011;69030;48.126;7.816;2023-08-01T00:42:19;5.40;;;2.55;;
79566;SDS011;69030;48.126;7.816;2023-08-01T00:44:45;5.07;;;3.80;;
79566;SDS011;69030;48.126;7.816;2023-08-01T00:49:38;4.97;;;3.38;;
79566;SDS011;69030;48.126;7.816;2023-08-01T00:52:03;4.60;;;2.80;;
79566;SDS011;69030;48.126;7.816;2023-08-01T00:54:29;4.72;;;2.58;;
79566;SDS011;69030;48.126;7.816;2023-08-01T00:57:00;5.32;;;2.28;;
79566;SDS011;69030;48.126;7.816;2023-08-01T00:59:26;3.95;;;2.42;;
79566;SDS011;69030;48.126;7.816;2023-08-01T01:01:51;6.90;;;3.83;;
79566;SDS011;69030;48.126;7.816;2023-08-01T01:04:16;4.45;;;3.45;;
79566;SDS011;69030;48.126;7.816;2023-08-01T01:06:47;3.67;;;2.90;;
79566;SDS011;69030;48.126;7.816;2023-08-01T01:09:17;3.47;;;2.45;;
79566;SDS011;69030;48.126;7.816;2023-08-01T01:11:43;6.93;;;2.92;;
79566;SDS011;69030;48.126;7.816;2023-08-01T01:14:09;5.47;;;2.80;;
79566;SDS011;69030;48.126;7.816;2023-08-01T01:16:34;6.00;;;2.65;;
79566;SDS011;69030;48.126;7.816;2023-08-01T01:19:00;4.45;;;2.45;;
79566;SDS011;69030;48.126;7.816;2023-08-01T01:21:25;4.30;;;2.72;;
79566;SDS011;69030;48.126;7.816;2023-08-01T01:23:50;4.50;;;2.10;;
79566;SDS011;69030;48.126;7.816;2023-08-01T01:26:16;6.85;;;2.53;;
79566;SDS011;69030;48.126;7.816;2023-08-01T01:28:45;3.92;;;2.28;;
79566;SDS011;69030;48.126;7.816;2023-08-01T01:31:12;3.55;;;2.50;;
79566;SDS011;69030;48.126;7.816;2023-08-01T01:33:38;4.50;;;2.50;;
79566;SDS011;69030;48.126;7.816;2023-08-01T01:36:03;5.25;;;2.80;;
79566;SDS011;69030;48.126;7.816;2023-08-01T01:38:29;3.90;;;2.15;;
79566;SDS011;69030;48.126;7.816;2023-08-01T01:40:54;5.60;;;2.15;;
79566;SDS011;69030;48.126;7.816;2023-08-01T01:43:20;4.60;;;2.45;;
79566;SDS011;69030;48.126;7.816;2023-08-01T01:45:45;4.00;;;2.13;;
79566;SDS011;69030;48.126;7.816;2023-08-01T01:48:11;5.15;;;2.13;;
79566;SDS011;69030;48.126;7.816;2023-08-01T01:50:36;4.63;;;1.63;;
79566;SDS011;69030;48.126;7.816;2023-08-01T01:53:01;3.90;;;1.42;;
79566;SDS011;69030;48.126;7.816;2023-08-01T01:55:27;8.50;;;2.00;;
79566;SDS011;69030;48.126;7.816;2023-08-01T01:57:52;6.57;;;2.13;;
79566;SDS011;69030;48.126;7.816;2023-08-01T02:00:17;5.65;;;2.38;;
79566;SDS011;69030;48.126;7.816;2023-08-01T02:02:43;2.97;;;2.45;;
79566;SDS011;69030;48.126;7.816;2023-08-01T02:05:08;3.50;;;2.17;;
79566;SDS011;69030;48.126;7.816;2023-08-01T02:07:33;3.00;;;1.70;;
79566;SDS011;69030;48.126;7.816;2023-08-01T02:09:59;5.25;;;2.13;;
79566;SDS011;69030;48.126;7.816;2023-08-01T02:12:25;5.10;;;2.40;;
79566;SDS011;69030;48.126;7.816;2023-08-01T02:14:51;5.50;;;2.60;;
79566;SDS011;69030;48.126;7.816;2023-08-01T02:17:16;3.42;;;2.55;;
79566;SDS011;69030;48.126;7.816;2023-08-01T02:19:42;4.40;;;1.98;;
79566;SDS011;69030;48.126;7.816;2023-08-01T02:22:07;2.97;;;2.33;;
79566;SDS011;69030;48.126;7.816;2023-08-01T02:24:32;4.32;;;2.13;;
79566;SDS011;69030;48.126;7.816;2023-08-01T02:26:58;5.40;;;2.03;;
79566;SDS011;69030;48.126;7.816;2023-08-01T02:29:23;4.30;;;2.63;;
79566;SDS011;69030;48.126;7.816;2023-08-01T02:31:49;7.47;;;1.92;;
79566;SDS011;69030;48.126;7.816;2023-08-01T02:34:14;4.60;;;2.45;;
79566;SDS011;69030;48.126;7.816;2023-08-01T02:36:39;4.25;;;2.95;;
79566;SDS011;69030;48.126;7.816;2023-08-01T02:39:05;4.78;;;2.88;;
79566;SDS011;69030;48.126;7.816;2023-08-01T02:41:31;4.38;;;2.17;;
79566;SDS011;69030;48.126;7.816;2023-08-01T02:43:57;4.47;;;2.47;;
79566;SDS011;69030;48.126;7.816;2023-08-01T02:46:22;4.57;;;2.22;;
79566;SDS011;69030;48.126;7.816;2023-08-01T02:48:48;5.35;;;2.38;;
79566;SDS011;69030;48.126;7.816;2023-08-01T02:51:13;4.25;;;1.10;;
79566;SDS011;69030;48.126;7.816;2023-08-01T02:53:39;3.70;;;2.15;;
79566;SDS011;69030;48.126;7.816;2023-08-01T02:56:07;4.45;;;2.05;;
79566;SDS011;69030;48.126;7.816;2023-08-01T03:03:26;4.45;;;2.00;;
79566;SDS011;69030;48.126;7.816;2023-08-01T03:05:51;2.97;;;1.80;;
79566;SDS011;69030;48.126;7.816;2023-08-01T03:08:17;4.55;;;1.95;;
79566;SDS011;69030;48.126;7.816;2023-08-01T03:10:42;4.47;;;1.83;;
79566;SDS011;69030;48.126;7.816;2023-08-01T03:13:08;5.07;;;2.75;;
79566;SDS011;69030;48.126;7.816;2023-08-01T03:15:33;4.88;;;3.13;;
79566;SDS011;69030;48.126;7.816;2023-08-01T03:17:58;3.67;;;1.90;;
79566;SDS011;69030;48.126;7.816;2023-08-01T03:20:24;4.43;;;2.38;;
79566;SDS011;69030;48.126;7.816;2023-08-01T03:22:49;4.25;;;2.28;;
79566;SDS011;69030;48.126;7.816;2023-08-01T03:25:14;5.15;;;2.25;;
79566;SDS011;69030;48.126;7.816;2023-08-01T03:27:40;6.32;;;2.17;;
79566;SDS011;69030;48.126;7.816;2023-08-01T03:30:05;6.15;;;2.45;;
79566;SDS011;69030;48.126;7.816;2023-08-01T03:32:33;5.97;;;1.63;;
79566;SDS011;69030;48.126;7.816;2023-08-01T03:34:59;5.10;;;2.17;;
79566;SDS011;69030;48.126;7.816;2023-08-01T03:37:25;6.32;;;3.55;;
79566;SDS011;69030;48.126;7.816;2023-08-01T03:39:50;4.57;;;2.33;;
79566;SDS011;69030;48.126;7.816;2023-08-01T03:42:15;5.40;;;2.92;;
79566;SDS011;69030;48.126;7.816;2023-08-01T03:44:41;4.82;;;2.45;;
79566;SDS011;69030;48.126;7.816;2023-08-01T03:47:06;5.72;;;3.25;;
79566;SDS011;69030;48.126;7.816;2023-08-01T03:49:31;4.13;;;2.00;;
79566;SDS011;69030;48.126;7.816;2023-08-01T03:51:57;6.45;;;3.38;;
79566;SDS011;69030;48.126;7.816;2023-08-01T03:54:22;10.73;;;2.55;;
79566;SDS011;69030;48.126;7.816;2023-08-01T03:56:47;5.32;;;2.67;;
79566;SDS011;69030;48.126;7.816;2023-08-01T03:59:13;5.60;;;2.63;;
79566;SDS011;69030;48.126;7.816;2023-08-01T04:01:40;7.03;;;2.42;;
79566;SDS011;69030;48.126;7.816;2023-08-01T04:04:05;5.53;;;2.83;;
79566;SDS011;69030;48.126;7.816;2023-08-01T04:06:31;5.30;;;1.20;;
79566;SDS011;69030;48.126;7.816;2023-08-01T04:08:57;6.82;;;2.80;;
79566;SDS011;69030;48.126;7.816;2023-08-01T04:11:22;8.77;;;2.75;;
79566;SDS011;69030;48.126;7.816;2023-08-01T04:13:48;4.57;;;2.55;;
79566;SDS011;69030;48.126;7.816;2023-08-01T04:16:13;5.40;;;2.47;;
79566;SDS011;69030;48.126;7.816;2023-08-01T04:18:39;5.95;;;3.63;;
79566;SDS011;69030;48.126;7.816;2023-08-01T04:21:04;4.25;;;2.00;;
79566;SDS011;69030;48.126;7.816;2023-08-01T04:23:29;3.92;;;2.97;;
79566;SDS011;69030;48.126;7.816;2023-08-01T04:25:55;6.65;;;3.10;;
79566;SDS011;69030;48.126;7.816;2023-08-01T04:28:20;5.10;;;2.58;;
79566;SDS011;69030;48.126;7.816;2023-08-01T04:30:49;9.48;;;2.85;;
79566;SDS011;69030;48.126;7.816;2023-08-01T04:33:15;4.40;;;2.70;;
79566;SDS011;69030;48.126;7.816;2023-08-01T04:35:40;6.25;;;3.03;;
79566;SDS011;69030;48.126;7.816;2023-08-01T04:38:05;5.20;;;2.83;;
79566;SDS011;69030;48.126;7.816;2023-08-01T04:40:31;6.00;;;2.50;;
79566;SDS011;69030;48.126;7.816;2023-08-01T04:42:56;9.77;;;2.97;;
79566;SDS011;69030;48.126;7.816;2023-08-01T04:45:21;5.30;;;2.75;;
79566;SDS011;69030;48.126;7.816;2023-08-01T04:47:47;6.72;;;2.53;;
79566;SDS011;69030;48.126;7.816;2023-08-01T04:50:12;6.75;;;3.63;;
79566;SDS011;69030;48.126;7.816;2023-08-01T04:52:38;6.03;;;3.47;;
79566;SDS011;69030;48.126;7.816;2023-08-01T04:55:03;4.90;;;2.63;;
79566;SDS011;69030;48.126;7.816;2023-08-01T04:57:29;4.50;;;2.95;;
79566;SDS011;69030;48.126;7.816;2023-08-01T04:59:54;7.25;;;2.95;;
79566;SDS011;69030;48.126;7.816;2023-08-01T05:02:20;12.30;;;3.50;;
79566;SDS011;69030;48.126;7.816;2023-08-01T05:04:45;6.20;;;3.53;;
79566;SDS011;69030;48.126;7.816;2023-08-01T05:07:10;4.55;;;2.80;;
79566;SDS011;69030;48.126;7.816;2023-08-01T05:09:36;4.30;;;2.95;;
79566;SDS011;69030;48.126;7.816;2023-08-01T05:12:01;7.82;;;3.10;;
79566;SDS011;69030;48.126;7.816;2023-08-01T05:14:27;7.10;;;2.97;;
79566;SDS011;69030;48.126;7.816;2023-08-01T05:16:52;4.75;;;2.83;;
79566;SDS011;69030;48.126;7.816;2023-08-01T05:19:17;6.55;;;2.47;;
79566;SDS011;69030;48.126;7.816;2023-08-01T05:21:43;7.25;;;2.60;;
79566;SDS011;69030;48.126;7.816;2023-08-01T05:24:08;4.57;;;3.05;;
79566;SDS011;69030;48.126;7.816;2023-08-01T05:26:33;6.65;;;2.92;;
79566;SDS011;69030;48.126;7.816;2023-08-01T05:28:59;5.75;;;2.88;;
79566;SDS011;69030;48.126;7.816;2023-08-01T05:31:24;7.25;;;2.65;;
79566;SDS011;69030;48.126;7.816;2023-08-01T05:33:49;6.82;;;1.85;;
79566;SDS011;69030;48.126;7.816;2023-08-01T05:36:15;6.20;;;2.55;;
79566;SDS011;69030;48.126;7.816;2023-08-01T05:38:40;6.65;;;2.95;;
79566;SDS011;69030;48.126;7.816;2023-08-01T05:41:05;4.03;;;3.05;;
79566;SDS011;69030;48.126;7.816;2023-08-01T05:43:31;6.57;;;2.90;;
79566;SDS011;69030;48.126;7.816;2023-08-01T05:45:56;4.90;;;2.47;;
79566;SDS011;69030;48.126;7.816;2023-08-01T05:48:22;6.10;;;2.78;;
79566;SDS011;69030;48.126;7.816;2023-08-01T05:50:47;4.70;;;3.90;;
79566;SDS011;69030;48.126;7.816;2023-08-01T05:53:13;7.68;;;3.22;;
79566;SDS011;69030;48.126;7.816;2023-08-01T05:55:38;6.38;;;3.15;;
79566;SDS011;69030;48.126;7.816;2023-08-01T05:58:03;9.25;;;2.97;;
79566;SDS011;69030;48.126;7.816;2023-08-01T06:00:29;5.30;;;2.85;;
79566;SDS011;69030;48.126;7.816;2023-08-01T06:02:55;4.93;;;3.33;;
79566;SDS011;69030;48.126;7.816;2023-08-01T06:05:20;10.95;;;2.15;;
79566;SDS011;69030;48.126;7.816;2023-08-01T06:07:46;5.03;;;2.35;;
79566;SDS011;69030;48.126;7.816;2023-08-01T06:10:11;5.70;;;2.85;;
79566;SDS011;69030;48.126;7.816;2023-08-01T06:12:37;4.57;;;2.90;;
79566;SDS011;69030;48.126;7.816;2023-08-01T06:15:02;5.40;;;3.00;;
79566;SDS011;69030;48.126;7.816;2023-08-01T06:17:28;5.57;;;3.22;;
79566;SDS011;69030;48.126;7.816;2023-08-01T06:19:54;5.68;;;2.83;;
79566;SDS011;69030;48.126;7.816;2023-08-01T06:22:19;6.53;;;2.60;;
79566;SDS011;69030;48.126;7.816;2023-08-01T06:24:45;5.82;;;2.88;;
79566;SDS011;69030;48.126;7.816;2023-08-01T06:27:10;9.15;;;2.45;;
79566;SDS011;69030;48.126;7.816;2023-08-01T06:29:35;6.43;;;3.00;;
79566;SDS011;69030;48.126;7.816;2023-08-01T06:32:02;6.20;;;3.42;;
79566;SDS011;69030;48.126;7.816;2023-08-01T06:34:27;6.93;;;4.05;;
79566;SDS011;69030;48.126;7.816;2023-08-01T06:36:53;6.55;;;3.17;;
79566;SDS011;69030;48.126;7.816;2023-08-01T06:39:18;5.38;;;3.38;;
79566;SDS011;69030;48.126;7.816;2023-08-01T06:41:43;5.68;;;2.92;;
79566;SDS011;69030;48.126;7.816;2023-08-01T06:44:09;7.40;;;2.92;;
79566;SDS011;69030;48.126;7.816;2023-08-01T06:46:34;9.85;;;3.17;;
79566;SDS011;69030;48.126;7.816;2023-08-01T06:48:59;5.82;;;3.28;;
79566;SDS011;69030;48.126;7.816;2023-08-01T06:51:25;8.68;;;3.55;;
79566;SDS011;69030;48.126;7.816;2023-08-01T06:53:50;6.78;;;2.75;;
79566;SDS011;69030;48.126;7.816;2023-08-01T06:56:16;5.60;;;2.38;;
79566;SDS011;69030;48.126;7.816;2023-08-01T06:58:41;5.35;;;3.10;;
79566;SDS011;69030;48.126;7.816;2023-08-01T07:01:06;4.95;;;3.08;;
79566;SDS011;69030;48.126;7.816;2023-08-01T07:03:32;6.43;;;3.70;;
79566;SDS011;69030;48.126;7.816;2023-08-01T07:05:57;3.70;;;2.70;;
79566;SDS011;69030;48.126;7.816;2023-08-01T07:08:23;6.80;;;3.67;;
79566;SDS011;69030;48.126;7.816;2023-08-01T07:10:48;6.22;;;3.58;;
79566;SDS011;69030;48.126;7.816;2023-08-01T07:13:13;5.90;;;3.40;;
79566;SDS011;69030;48.126;7.816;2023-08-01T07:15:39;4.13;;;2.47;;
79566;SDS011;69030;48.126;7.816;2023-08-01T07:18:05;6.15;;;3.15;;
79566;SDS011;69030;48.126;7.816;2023-08-01T07:20:30;6.88;;;3.10;;
79566;SDS011;69030;48.126;7.816;2023-08-01T07:22:56;6.68;;;3.00;;
79566;SDS011;69030;48.126;7.816;2023-08-01T07:25:21;6.88;;;3.40;;
79566;SDS011;69030;48.126;7.816;2023-08-01T07:27:47;4.28;;;2.83;;
79566;SDS011;69030;48.126;7.816;2023-08-01T07:30:12;4.88;;;2.58;;
79566;SDS011;69030;48.126;7.816;2023-08-01T07:32:38;4.63;;;2.17;;
79566;SDS011;69030;48.126;7.816;2023-08-01T07:35:04;4.25;;;3.35;;
79566;SDS011;69030;48.126;7.816;2023-08-01T07:37:30;5.85;;;3.20;;
79566;SDS011;69030;48.126;7.816;2023-08-01T07:39:56;6.95;;;3.42;;
79566;SDS011;69030;48.126;7.816;2023-08-01T07:42:22;5.88;;;3.05;;
79566;SDS011;69030;48.126;7.816;2023-08-01T07:44:47;5.65;;;3.78;;
79566;SDS011;69030;48.126;7.816;2023-08-01T07:47:13;10.32;;;3.65;;
79566;SDS011;69030;48.126;7.816;2023-08-01T07:49:38;8.18;;;3.92;;
79566;SDS011;69030;48.126;7.816;2023-08-01T07:52:04;7.07;;;3.83;;
79566;SDS011;69030;48.126;7.816;2023-08-01T07:54:29;8.90;;;3.13;;
79566;SDS011;69030;48.126;7.816;2023-08-01T07:56:55;6.78;;;3.33;;
79566;SDS011;69030;48.126;7.816;2023-08-01T07:59:20;4.75;;;3.13;;
79566;SDS011;69030;48.126;7.816;2023-08-01T08:01:45;6.60;;;3.60;;
79566;SDS011;69030;48.126;7.816;2023-08-01T08:04:11;4.85;;;2.92;;
79566;SDS011;69030;48.126;7.816;2023-08-01T08:06:36;5.38;;;3.20;;
79566;SDS011;69030;48.126;7.816;2023-08-01T08:09:01;8.73;;;2.47;;
79566;SDS011;69030;48.126;7.816;2023-08-01T08:11:28;7.00;;;3.60;;
79566;SDS011;69030;48.126;7.816;2023-08-01T08:13:53;3.42;;;1.92;;
79566;SDS011;69030;48.126;7.816;2023-08-01T08:16:19;5.32;;;3.28;;
79566;SDS011;69030;48.126;7.816;2023-08-01T08:18:44;4.13;;;2.72;;
79566;SDS011;69030;48.126;7.816;2023-08-01T08:21:09;5.60;;;2.85;;
79566;SDS011;69030;48.126;7.816;2023-08-01T08:23:35;4.47;;;1.60;;
79566;SDS011;69030;48.126;7.816;2023-08-01T08:26:00;4.22;;;2.33;;
79566;SDS011;69030;48.126;7.816;2023-08-01T08:28:29;7.13;;;3.10;;
79566;SDS011;69030;48.126;7.816;2023-08-01T08:30:56;5.07;;;2.47;;
79566;SDS011;69030;48.126;7.816;2023-08-01T08:33:21;5.90;;;3.10;;
79566;SDS011;69030;48.126;7.816;2023-08-01T08:35:47;3.70;;;2.30;;
79566;SDS011;69030;48.126;7.816;2023-08-01T08:38:13;5.78;;;2.63;;
79566;SDS011;69030;48.126;7.816;2023-08-01T08:40:47;6.10;;;2.55;;
79566;SDS011;69030;48.126;7.816;2023-08-01T08:43:17;3.10;;;2.15;;
79566;SDS011;69030;48.126;7.816;2023-08-01T08:45:43;5.50;;;1.30;;
79566;SDS011;69030;48.126;7.816;2023-08-01T08:48:09;5.40;;;2.75;;
79566;SDS011;69030;48.126;7.816;2023-08-01T08:50:38;5.15;;;3.38;;
79566;SDS011;69030;48.126;7.816;2023-08-01T08:53:03;4.80;;;2.42;;
79566;SDS011;69030;48.126;7.816;2023-08-01T08:55:29;3.65;;;2.67;;
79566;SDS011;69030;48.126;7.816;2023-08-01T08:57:56;4.82;;;2.67;;
79566;SDS011;69030;48.126;7.816;2023-08-01T09:00:22;3.53;;;2.33;;
79566;SDS011;69030;48.126;7.816;2023-08-01T09:02:47;4.07;;;2.83;;
79566;SDS011;69030;48.126;7.816;2023-08-01T09:05:13;4.63;;;2.05;;
79566;SDS011;69030;48.126;7.816;2023-08-01T09:07:39;4.28;;;1.77;;
79566;SDS011;69030;48.126;7.816;2023-08-01T09:10:09;6.68;;;2.35;;
79566;SDS011;69030;48.126;7.816;2023-08-01T09:12:34;4.13;;;2.38;;
79566;SDS011;69030;48.126;7.816;2023-08-01T09:15:00;7.93;;;3.40;;
79566;SDS011;69030;48.126;7.816;2023-08-01T09:17:25;5.13;;;2.50;;
79566;SDS011;69030;48.126;7.816;2023-08-01T09:20:04;3.90;;;2.60;;
79566;SDS011;69030;48.126;7.816;2023-08-01T09:22:45;4.05;;;1.88;;
79566;SDS011;69030;48.126;7.816;2023-08-01T09:25:11;6.63;;;2.47;;
79566;SDS011;69030;48.126;7.816;2023-08-01T09:27:38;6.28;;;2.83;;
79566;SDS011;69030;48.126;7.816;2023-08-01T09:30:07;5.03;;;2.90;;
79566;SDS011;69030;48.126;7.816;2023-08-01T09:32:38;5.80;;;1.35;;
79566;SDS011;69030;48.126;7.816;2023-08-01T09:35:03;5.90;;;2.78;;
79566;SDS011;69030;48.126;7.816;2023-08-01T09:37:42;3.17;;;2.08;;
79566;SDS011;69030;48.126;7.816;2023-08-01T09:40:08;5.03;;;2.85;;
79566;SDS011;69030;48.126;7.816;2023-08-01T09:42:41;3.75;;;2.55;;
79566;SDS011;69030;48.126;7.816;2023-08-01T09:45:14;4.50;;;2.83;;
79566;SDS011;69030;48.126;7.816;2023-08-01T09:47:43;2.97;;;2.30;;
79566;SDS011;69030;48.126;7.816;2023-08-01T09:50:09;3.42;;;2.20;;
79566;SDS011;69030;48.126;7.816;2023-08-01T09:52:36;4.40;;;2.30;;
79566;SDS011;69030;48.126;7.816;2023-08-01T09:55:01;2.92;;;2.33;;
79566;SDS011;69030;48.126;7.816;2023-08-01T09:57:29;2.92;;;2.15;;
79566;SDS011;69030;48.126;7.816;2023-08-01T09:59:56;5.32;;;2.22;;
79566;SDS011;69030;48.126;7.816;2023-08-01T10:02:21;4.45;;;2.03;;
79566;SDS011;69030;48.126;7.816;2023-08-01T10:04:52;5.10;;;2.90;;
79566;SDS011;69030;48.126;7.816;2023-08-01T10:07:17;4.25;;;1.90;;
79566;SDS011;69030;48.126;7.816;2023-08-01T10:09:48;3.65;;;1.83;;
79566;SDS011;69030;48.126;7.816;2023-08-01T10:12:14;4.07;;;2.35;;
79566;SDS011;69030;48.126;7.816;2023-08-01T10:14:43;2.28;;;1.30;;
79566;SDS011;69030;48.126;7.816;2023-08-01T10:17:08;2.85;;;1.90;;
79566;SDS011;69030;48.126;7.816;2023-08-01T10:19:36;6.50;;;1.80;;
79566;SDS011;69030;48.126;7.816;2023-08-01T10:22:02;3.65;;;1.60;;
79566;SDS011;69030;48.126;7.816;2023-08-01T10:24:29;4.45;;;1.80;;
79566;SDS011;69030;48.126;7.816;2023-08-01T10:26:55;4.20;;;2.33;;
79566;SDS011;69030;48.126;7.816;2023-08-01T10:29:20;3.38;;;2.40;;
79566;SDS011;69030;48.126;7.816;2023-08-01T10:31:52;3.40;;;1.50;;
79566;SDS011;69030;48.126;7.816;2023-08-01T10:34:18;3.80;;;2.45;;
79566;SDS011;69030;48.126;7.816;2023-08-01T10:36:53;3.10;;;1.80;;
79566;SDS011;69030;48.126;7.816;2023-08-01T10:39:22;3.78;;;2.75;;
79566;SDS011;69030;48.126;7.816;2023-08-01T10:41:56;3.67;;;2.13;;
79566;SDS011;69030;48.126;7.816;2023-08-01T10:44:23;3.03;;;1.77;;
79566;SDS011;69030;48.126;7.816;2023-08-01T10:46:49;3.35;;;1.75;;
79566;SDS011;69030;48.126;7.816;2023-08-01T10:49:15;9.15;;;1.83;;
79566;SDS011;69030;48.126;7.816;2023-08-01T10:51:42;3.13;;;1.40;;
79566;SDS011;69030;48.126;7.816;2023-08-01T10:54:17;2.47;;;0.93;;
79566;SDS011;69030;48.126;7.816;2023-08-01T10:56:46;3.65;;;0.90;;
79566;SDS011;69030;48.126;7.816;2023-08-01T10:59:13;2.47;;;0.98;;
79566;SDS011;69030;48.126;7.816;2023-08-01T11:01:43;1.80;;;0.93;;
79566;SDS011;69030;48.126;7.816;2023-08-01T11:06:45;0.93;;;0.52;;
79566;SDS011;69030;48.126;7.816;2023-08-01T11:09:21;1.25;;;1.15;;
79566;SDS011;69030;48.126;7.816;2023-08-01T11:11:48;2.13;;;0.73;;
79566;SDS011;69030;48.126;7.816;2023-08-01T11:14:14;1.38;;;1.23;;
79566;SDS011;69030;48.126;7.816;2023-08-01T11:16:40;0.82;;;0.80;;
79566;SDS011;69030;48.126;7.816;2023-08-01T11:19:06;1.77;;;0.95;;
79566;SDS011;69030;48.126;7.816;2023-08-01T11:21:31;0.70;;;0.63;;
79566;SDS011;69030;48.126;7.816;2023-08-01T11:24:00;1.75;;;0.47;;
79566;SDS011;69030;48.126;7.816;2023-08-01T11:26:31;0.85;;;0.50;;
79566;SDS011;69030;48.126;7.816;2023-08-01T11:29:00;0.77;;;0.50;;
79566;SDS011;69030;48.126;7.816;2023-08-01T11:31:27;0.68;;;0.60;;
79566;SDS011;69030;48.126;7.816;2023-08-01T11:33:55;0.88;;;0.88;;
79566;SDS011;69030;48.126;7.816;2023-08-01T11:36:22;0.80;;;0.73;;
79566;SDS011;69030;48.126;7.816;2023-08-01T11:38:48;0.65;;;0.63;;
79566;SDS011;69030;48.126;7.816;2023-08-01T11:41:14;0.80;;;0.70;;
79566;SDS011;69030;48.126;7.816;2023-08-01T11:43:42;1.55;;;1.45;;
79566;SDS011;69030;48.126;7.816;2023-08-01T11:46:08;2.90;;;0.80;;
79566;SDS011;69030;48.126;7.816;2023-08-01T11:48:34;0.82;;;0.00;;
79566;SDS011;69030;48.126;7.816;2023-08-01T11:51:00;0.75;;;0.70;;
79566;SDS011;69030;48.126;7.816;2023-08-01T11:53:26;2.35;;;0.98;;
79566;SDS011;69030;48.126;7.816;2023-08-01T11:55:52;1.13;;;1.02;;
79566;SDS011;69030;48.126;7.816;2023-08-01T11:58:31;3.25;;;0.80;;
79566;SDS011;69030;48.126;7.816;2023-08-01T12:01:03;0.82;;;0.63;;
79566;SDS011;69030;48.126;7.816;2023-08-01T12:03:41;0.77;;;0.38;;
79566;SDS011;69030;48.126;7.816;2023-08-01T12:06:11;1.05;;;0.73;;
79566;SDS011;69030;48.126;7.816;2023-08-01T12:08:38;0.93;;;0.80;;
79566;SDS011;69030;48.126;7.816;2023-08-01T12:11:04;0.80;;;0.50;;
79566;SDS011;69030;48.126;7.816;2023-08-01T12:13:29;4.50;;;0.75;;
79566;SDS011;69030;48.126;7.816;2023-08-01T12:15:56;3.08;;;0.55;;
79566;SDS011;69030;48.126;7.816;2023-08-01T12:18:22;1.42;;;1.33;;
79566;SDS011;69030;48.126;7.816;2023-08-01T12:20:54;1.85;;;1.75;;
79566;SDS011;69030;48.126;7.816;2023-08-01T12:23:20;2.00;;;1.90;;
79566;SDS011;69030;48.126;7.816;2023-08-01T12:25:46;1.08;;;0.68;;
79566;SDS011;69030;48.126;7.816;2023-08-01T12:28:15;4.38;;;0.47;;
79566;SDS011;69030;48.126;7.816;2023-08-01T12:30:41;1.08;;;0.52;;
79566;SDS011;69030;48.126;7.816;2023-08-01T12:33:07;0.70;;;0.43;;
79566;SDS011;69030;48.126;7.816;2023-08-01T12:35:33;0.45;;;0.40;;
79566;SDS011;69030;48.126;7.816;2023-08-01T12:37:58;0.88;;;0.88;;
79566;SDS011;69030;48.126;7.816;2023-08-01T12:40:24;1.23;;;0.77;;
79566;SDS011;69030;48.126;7.816;2023-08-01T12:42:49;0.43;;;0.40;;
79566;SDS011;69030;48.126;7.816;2023-08-01T12:45:15;1.75;;;0.50;;
79566;SDS011;69030;48.126;7.816;2023-08-01T12:47:40;0.50;;;0.50;;
79566;SDS011;69030;48.126;7.816;2023-08-01T12:50:05;0.63;;;0.52;;
79566;SDS011;69030;48.126;7.816;2023-08-01T12:52:31;1.55;;;1.45;;
79566;SDS011;69030;48.126;7.816;2023-08-01T12:54:57;1.23;;;1.13;;
79566;SDS011;69030;48.126;7.816;2023-08-01T12:57:22;1.50;;;1.30;;
79566;SDS011;69030;48.126;7.816;2023-08-01T12:59:48;0.75;;;0.70;;
79566;SDS011;69030;48.126;7.816;2023-08-01T13:02:13;1.05;;;0.98;;
79566;SDS011;69030;48.126;7.816;2023-08-01T13:04:39;1.08;;;0.95;;
79566;SDS011;69030;48.126;7.816;2023-08-01T13:07:04;0.75;;;0.75;;
79566;SDS011;69030;48.126;7.816;2023-08-01T13:09:30;0.77;;;0.50;;
79566;SDS011;69030;48.126;7.816;2023-08-01T13:11:55;1.05;;;0.75;;
79566;SDS011;69030;48.126;7.816;2023-08-01T13:14:21;0.82;;;0.60;;
79566;SDS011;69030;48.126;7.816;2023-08-01T13:16:47;1.13;;;0.77;;
79566;SDS011;69030;48.126;7.816;2023-08-01T13:19:12;0.93;;;0.57;;
79566;SDS011;69030;48.126;7.816;2023-08-01T13:21:37;0.50;;;0.50;;
79566;SDS011;69030;48.126;7.816;2023-08-01T13:24:03;0.22;;;0.05;;
79566;SDS011;69030;48.126;7.816;2023-08-01T13:26:32;0.82;;;0.63;;
79566;SDS011;69030;48.126;7.816;2023-08-01T13:28:57;0.82;;;0.80;;
79566;SDS011;69030;48.126;7.816;2023-08-01T13:31:23;1.23;;;0.55;;
79566;SDS011;69030;48.126;7.816;2023-08-01T13:33:49;1.00;;;0.60;;
79566;SDS011;69030;48.126;7.816;2023-08-01T13:36:14;1.05;;;0.57;;
79566;SDS011;69030;48.126;7.816;2023-08-01T13:38:40;1.75;;;0.70;;
79566;SDS011;69030;48.126;7.816;2023-08-01T13:41:05;1.20;;;0.73;;
79566;SDS011;69030;48.126;7.816;2023-08-01T13:43:30;1.05;;;0.85;;
79566;SDS011;69030;48.126;7.816;2023-08-01T13:45:56;0.63;;;0.40;;
79566;SDS011;69030;48.126;7.816;2023-08-01T13:48:21;1.35;;;1.05;;
79566;SDS011;69030;48.126;7.816;2023-08-01T13:50:47;0.80;;;0.73;;
79566;SDS011;69030;48.126;7.816;2023-08-01T13:53:12;0.85;;;0.85;;
79566;SDS011;69030;48.126;7.816;2023-08-01T13:55:39;0.63;;;0.52;;
79566;SDS011;69030;48.126;7.816;2023-08-01T13:58:05;1.75;;;1.65;;
79566;SDS011;69030;48.126;7.816;2023-08-01T14:00:31;0.77;;;0.73;;
79566;SDS011;69030;48.126;7.816;2023-08-01T14:02:56;3.05;;;0.80;;
79566;SDS011;69030;48.126;7.816;2023-08-01T14:05:24;0.93;;;0.88;;
79566;SDS011;69030;48.126;7.816;2023-08-01T14:07:51;5.15;;;0.90;;
79566;SDS011;69030;48.126;7.816;2023-08-01T14:10:16;1.63;;;1.08;;
79566;SDS011;69030;48.126;7.816;2023-08-01T14:12:41;1.13;;;0.68;;
79566;SDS011;69030;48.126;7.816;2023-08-01T14:15:07;0.75;;;0.70;;
79566;SDS011;69030;48.126;7.816;2023-08-01T14:17:33;0.70;;;0.60;;
79566;SDS011;69030;48.126;7.816;2023-08-01T14:19:58;1.10;;;0.63;;
79566;SDS011;69030;48.126;7.816;2023-08-01T14:22:24;0.70;;;0.63;;
79566;SDS011;69030;48.126;7.816;2023-08-01T14:24:49;0.70;;;0.63;;
79566;SDS011;69030;48.126;7.816;2023-08-01T14:27:15;1.50;;;0.85;;
79566;SDS011;69030;48.126;7.816;2023-08-01T14:29:40;2.10;;;0.98;;
79566;SDS011;69030;48.126;7.816;2023-08-01T14:32:05;1.08;;;0.73;;
79566;SDS011;69030;48.126;7.816;2023-08-01T14:34:31;1.00;;;1.00;;
79566;SDS011;69030;48.126;7.816;2023-08-01T14:36:56;0.90;;;0.73;;
79566;SDS011;69030;48.126;7.816;2023-08-01T14:39:22;1.35;;;0.63;;
79566;SDS011;69030;48.126;7.816;2023-08-01T14:41:47;1.65;;;0.98;;
79566;SDS011;69030;48.126;7.816;2023-08-01T14:44:13;0.73;;;0.60;;
79566;SDS011;69030;48.126;7.816;2023-08-01T14:46:38;0.90;;;0.85;;
79566;SDS011;69030;48.126;7.816;2023-08-01T14:49:03;1.10;;;0.63;;
79566;SDS011;69030;48.126;7.816;2023-08-01T14:51:29;0.95;;;0.50;;